NOTICE: In January 2020, USGS WaterWatch began operating in maintenance-only mode. Existing tools, features, and web data services are being fully maintained as before, but new tools and enhancements will no longer be developed. Please click here for more information or contact USGS WaterWatch if you have any questions.
Choose a state:
Most recent flow and stage for Idaho
(Stations highlighted in red are currently above flood stage)
USGS
station
ID
USGS station name NWS
flood
stage
(ft)
Most recent
stage
(ft)
Most recent
flow
(cfs)
Historical
peaks
(cfs)
Most recent
local
date/time
NWS
station
ID
10039500 BEAR RIVER AT BORDER, WY 7.5 0.97 60.5 4,880 2021-10-16 06:30:00 BRBW4
10068500 BEAR RIVER AT PESCADERO ID 6.2 1.71 42.4 4,280 2021-10-16 06:45:00 BRAI1
10092700 BEAR RIVER AT IDAHO-UTAH STATE LINE 18.1 9.30 383 4,870 2021-10-16 06:45:00 BIUI1
12305000 KOOTENAI RIVER AT LEONIA, ID   10.35 4,410 123,000 2021-10-16 05:15:00 LEOI1
12306500 MOYIE RIVER AT EASTPORT ID 9 3.31 45.6 9,400 2021-10-16 05:45:00 EASI1
12308000 KOOTENAI RIVER BEL MOYIE RIVER NR BONNERS FERRY ID   71.33 4,440 61,300 2021-10-16 05:30:00 KRMI1
12308500 KOOTENAI R AT CROSSPORT NR BONNERS FERRY, ID   60.68

 

  2021-10-16 05:00:00  
12309500 KOOTENAI RIVER AT BONNERS FERRY ID 64 44.55

 

130,000 2021-10-16 05:15:00 BFEI1
12310100 KOOTENAI RIVER @ TRIBAL HATCHERY NR BONNERS FERRY   47.37 4,850 61,100 2021-10-16 05:00:00  
12314000 KOOTENAI R AT KLOCKMANN RANCH NR BONNERS FERRY ID   43.07

 

  2021-10-16 05:30:00 KRKI1
12318500 KOOTENAI RIVER NR COPELAND ID   42.81

 

124,000 2021-10-16 05:30:00  
12321500 BOUNDARY CREEK NR PORTHILL ID   9.57 29.6 4,080 2021-10-16 05:00:00  
12322000 KOOTENAI RIVER AT PORTHILL ID   42.68 3,890 125,000 2021-10-16 05:45:00 PORI1
12391950 CLARK FORK RIVER BELOW CABINET GORGE DAM ID   7.55 5,860 134,000 2021-10-16 05:45:00 CBBI1
12392155 LIGHTNING CREEK AT CLARK FORK ID   9.37 22.8 16,400 2021-10-16 05:45:00 LTCI1
12392300 PACK RIVER NR COLBURN ID   15.95 40.1 6,880 2021-10-16 05:30:00 PAKI1
12393000 PRIEST LAKE AT OUTLET NR COOLIN ID   0.99

 

2021-10-16 05:30:00 PSLI1
12393501 PRIEST R OUTFLOW NR COOLIN, ID   16.58 1,240 8,210 2021-10-16 05:30:00 PSRI1
12395000 Priest River near Priest River, ID   2.50 1,500 10,800 2021-10-16 05:15:00 PRTI1
12395500 PEND OREILLE RIVER AT NEWPORT WA   35.01 22,400 200,000 2021-10-16 05:45:00 ATGW1
12411000 NF COEUR D ALENE R AB SHOSHONE CK NR PRICHARD ID   0.94 72.6 22,000 2021-10-16 05:15:00 PRCI1
12413000 NF COEUR D ALENE RIVER AT ENAVILLE ID 72 56.85 217 61,000 2021-10-16 05:45:00 ENVI1
12413125 CANYON CREEK AB MOUTH AT WALLACE, ID   19.97 11.3 823 2021-10-16 05:45:00 CCRI1
12413130 NINEMILE CREEK AB MOUTH AT WALLACE, ID   12.33 2.82 350 2021-10-16 05:30:00 NMLI1
12413131 SF COEUR D ALENE R ABV PLACER CR AT WALLACE ID   12.09 37.7 1,800 2021-10-16 05:45:00 SFWI1
12413210 SF COEUR D ALENE AT ELIZABETH PARK NR KELLOGG ID   23.71 65.4 9,600 2021-10-16 05:45:00 SKGI1
12413355 SF COEUR D ALENE RIVER ABV PINE CR NR PINEHURST ID   87.92 74.9 6,000 2021-10-16 05:00:00 SFPI1
12413470 SF Coeur D Alene River nr Pinehurst, ID   5.86 89.2 11,700 2021-10-16 04:45:00 PSTI1
12413500 COEUR D ALENE RIVER NR CATALDO ID 43 32.51 282 79,000 2021-10-16 05:30:00 CTLI1
12413860 COEUR D ALENE RIVER NR HARRISON ID   23.15 300 27,300 2021-10-16 05:20:00 HARI1
12413875 ST JOE RIVER AT RED IVES RANGER STATION, ID   1.44 66.8 4,800 2021-10-16 05:00:00 SJII1
12414500 ST JOE RIVER AT CALDER, ID 13 5.16 286 53,000 2021-10-16 05:30:00 CLDI1
12414900 ST MARIES RIVER NR SANTA, ID   3.94 49.2 12,300 2021-10-16 05:15:00 SATI1
12415070 ST JOE RIVER AT SAINT MARIES, ID 32.5 26.79

 

  2021-10-16 05:30:00 SJMI1
12415135 ST JOE RIVER AT RAMSDELL NR ST MARIES ID   26.87 240 28,100 2021-10-16 05:30:00 SJRI1
12415500 COEUR D ALENE LAKE AT COEUR D ALENE ID 2133 25.99

 

  2021-10-16 05:30:00 COEI1
12417650 SPOKANE RIVER BLW BLACKWELL NR COEUR D ALENE ID   26.83 1,200 23,900 2021-10-16 05:06:00  
12419000 SPOKANE RIVER NR POST FALLS ID   7.07 1,410 50,100 2021-10-16 05:30:00 PTFI1
13010065 SNAKE RIVER AB JACKSON LAKE AT FLAGG RANCH WY 10 2.27 208 15,000 2021-10-16 06:30:00 FLGW4
13011000 SNAKE RIVER NR MORAN WY   2.38 297 15,100 2021-10-16 06:45:00 JLKW4
13011500 PACIFIC CREEK AT MORAN WY 8 4.05 40.7 5,790 2021-10-16 06:30:00 PACW4
13011900 BUFFALO FORK AB LAVA CREEK NR MORAN WY 8.5 0.89 175 6,540 2021-10-16 06:30:00 BFKW4
13015000 GROS VENTRE RIVER AT ZENITH WY   17.11 Ssn 6,170 2021-10-05 14:15:00 GVZW4
13018750 SNAKE RIVER BL FLAT CREEK NR JACKSON WY 10 1.29 1,330 30,200 2021-10-16 06:30:00 JKSW4
13022500 SNAKE RIVER AB RESERVOIR NR ALPINE WY   2.99 1,670 38,600 2021-10-16 06:30:00 ALPW4
13023000 GREYS RIVER AB RESERVOIR NR ALPINE WY   1.36 241 7,230 2021-10-16 06:30:00 GREW4
13027500 SALT RIVER AB RESERVOIR NR ETNA WY 5.5 1.87 441 5,090 2021-10-16 06:30:00 SALW4
13032500 SNAKE RIVER NR IRWIN ID   5.12 1,800 40,400 2021-10-16 06:30:00 PALI1
13034450 RAINEY CK AT SWAN VALLEY IDAHO   1.06

 

  2021-10-16 06:00:00 RACI1
13037500 SNAKE RIVER NR HEISE ID 8 1.94 2,380 60,000 2021-10-16 06:30:00 HEII1
13038000 DRY BED NR RIRIE ID   7.62 1,200 5,630 2021-10-16 06:45:00  
13038500 SNAKE RIVER AT LORENZO ID   2.97 960 43,000 2021-10-16 06:15:00 LORI1
13039000 HENRYS LAKE NR LAKE ID   14.49

 

  2021-10-16 06:30:00 HLKI1
13039500 HENRYS FORK NR LAKE ID   4.91 37.0 907 2021-10-16 06:45:00 HENI1
13040500 Big Springs At Big Springs ID   1.35 196   2021-10-16 06:00:00  
13042500 HENRYS FORK NR ISLAND PARK ID   2.35 74.5 3,030 2021-10-16 06:45:00 ISLI1
13046000 HENRYS FORK NR ASHTON ID   2.88 702 8,140 2021-10-16 06:15:00 HFAI1
13046995 FALL RIVER AB YELLOWSTONE CANAL NR SQUIRREL ID   5.46 471 6,930 2021-10-16 06:45:00 FAYI1
13047500 FALL RIVER NR SQUIRREL ID   0.73 219 7,060 2021-10-16 06:45:00 FALI1
13047600 FALL RIVER NR ASHTON ID   4.11 461 6,460 2021-10-16 06:45:00 FRAI1
13049500 FALL RIVER NR CHESTER ID 6.5 2.20 405 9,310 2021-10-16 06:15:00 CHEI1
13050500 HENRYS FORK AT ST ANTHONY ID 7 3.32 986 14,000 2021-10-16 06:45:00 ANTI1
13052200 TETON RIVER AB SOUTH LEIGH CREEK NR DRIGGS ID 4.2 1.35 212 2,980 2021-10-16 06:30:00 DGGI1
13055000 TETON RIVER NR ST ANTHONY ID 6 2.06 355 1,700,000 2021-10-16 06:15:00 TEAI1
13055250 NF TETON RIVER NR SUGAR CITY ID   4.13 75.4 1,880 2021-10-16 06:30:00 NFTI1
13055340 SF TETON RIVER NEAR REXBURG ID   4.67 65.6 3,410 2021-10-16 06:00:00 TTXI1
13056500 HENRYS FORK NR REXBURG ID 9.5 3.40 1,070 79,000 2021-10-16 06:15:00 REXI1
13057000 SNAKE RIVER NR MENAN ID 8.5 2.09 2,370 30,400 2021-10-16 06:30:00 MENI1
13057132 GREAT WESTERN SPILLBACK NR IDAHO FALLS ID   -0.44 0.00 991 2021-10-16 06:30:00  
13057155 SNAKE RIVER AB EAGLE ROCK NR IDAHO FALLS ID 13.2 6.04 2,860 48,600 2021-10-16 06:15:00 SIFI1
13057300 GRAYS LAKE DIV TO BLACKFOOT R BASIN NR WAYAN, ID   2.59 0.04 618 2021-10-16 06:15:00 GLBI1
13057500 GRAYS LAKE OUTLET NR HERMAN ID   1.68 Ssn 62.8 2021-10-16 06:00:00  
13057940 WILLOW CREEK BL TEX CREEK NR RIRIE ID 5.3 2.27 23.4 2,900 2021-10-16 06:45:00 WTXI1
13058000 WILLOW CREEK NR RIRIE ID 12.1 2.50 91.5 5,080 2021-10-16 06:30:00 RIRI1
13058510 SAND CREEK NEAR UCON ID   0.78 3.04 1,040 2021-10-16 06:30:00  
13058520 WILLOW CREEK FLOODWAY CHANNEL NR UCON ID   2.96 62.2 1,100 2021-10-16 06:30:00  
13058529 WILLOW CR FLOODWAY CHANNEL AT MOUTH NR ID FALLS ID   10.30 6.98 1,040 2021-10-16 06:30:00  
13058530 WILLOW CREEK BLW FLOODWAY CHANNEL NR UCON ID   2.59 0.00 249 2021-10-16 06:30:00  
13060000 SNAKE RIVER NR SHELLEY ID 12.5 5.71 3,050 75,000 2021-10-16 06:15:00 SHYI1
13062500 SNAKE RIVER AT BLACKFOOT ID 10.5 4.99 2,600 43,200 2021-10-16 06:15:00 SNAI1
13063000 BLACKFOOT RIVER AB RESERVOIR NR HENRY ID 5.5 1.74 39.3 2,150 2021-10-15 23:45:00 BKHI1
13065500 BLACKFOOT RIVER NR HENRY ID   1.44 Ssn 1,640 2021-10-01 01:30:00  
13066000 BLACKFOOT RIVER NR SHELLEY ID 8.5 5.48 90.9 3,220 2021-10-16 06:30:00 SHLI1
13068300 BLACKFOOT RIVER BELOW NORTH CANAL AT BLACKFOOT ID   3.58 282 1,760 2021-10-16 06:45:00  
13068495 BLACKFOOT RIVER BYPASS NR BLACKFOOT ID   6.58 112 994 2021-10-16 06:30:00  
13068500 BLACKFOOT RIVER NR BLACKFOOT ID 5.8 3.20 171 657 2021-10-16 06:30:00 BLFI1
13069500 SNAKE RIVER NR BLACKFOOT ID 11 3.33 2,880 53,500 2021-10-16 06:15:00 BFTI1
13073000 PORTNEUF RIVER AT TOPAZ ID 4 2.42 91.6 7,120 2021-10-16 06:15:00 TOPI1
13075000 MARSH CREEK NR MCCAMMON ID 5.5 2.63 40.3 1,120 2021-10-16 06:45:00 MCCI1
13075500 PORTNEUF RIVER AT POCATELLO ID 8.5 3.78 147 2,990 2021-10-16 06:45:00 PIHI1
13075910 PORTNEUF RIVER NR TYHEE ID 6.2 5.01 309 1,740 2021-10-16 06:30:00 PTYI1
13075983 SPRING CREEK AT SHEEPSKIN RD NR FORT HALL ID   4.30 293 605 2021-10-16 06:15:00 SPSI1
13077000 SNAKE RIVER AT NEELEY ID 9.5 3.13 1,040 48,400 2021-10-16 06:30:00 AMFI1
13078000 RAFT RIVER AB ONEMILE CREEK NR MALTA ID 6.5 5.04 6.33 2,060 2021-10-16 06:15:00 RRVI1
13079300 CASSIA CREEK BELOW BLACKSMITH CK, ID   1.68 0.73   2021-10-16 06:45:00  
13079901 RAFT RIVER NR MOUTH AT (YALE) RAFT RIVER, ID   0.49 Rat 290 2021-10-16 06:00:00  
13081500 SNAKE R NR MINIDOKA ID (AT HOWELLS FERRY) 11.5 2.44 408 47,500 2021-10-16 06:30:00 MDMI1
13082500 GOOSE CREEK AB TRAPPER CREEK NR OAKLEY ID 5.5 1.62 11.2 3,550 2021-10-16 06:30:00 GOSI1
13083000 TRAPPER CREEK NR OAKLEY ID   4.80 8.85 292 2021-10-16 06:30:00 TCOI1
13087900 MILNER LAKE AT MILNER DAM ID   9.09

 

  2021-10-16 06:45:00  
13087995 SNAKE RIVER GAGING STATION AT MILNER ID   0.51 0.00 26,300 2021-10-16 06:30:00 MILI1
13089500 DEVILS WASHBOWL SPRING NR KIMBERLY 10S 18E 04AAD1S   1.57 15.5   2021-10-16 06:30:00 DWSI1
13090500 SNAKE RIVER NR TWIN FALLS ID   1.88 529 40,000 2021-10-16 06:30:00 STFI1
13092747 ROCK CREEK AB HWY 30/93 XING AT TWIN FALLS ID   6.63 151 623 2021-10-16 06:30:00 TFAI1
13093383 SNAKE RIVER AT PIGEON COVE NR TWIN FALLS, ID   95.48 1,180 9,410 2021-10-16 06:30:00  
13093385 Snake R above Crystal Springs Hatchery   87.30

 

  2021-10-16 05:45:00  
13093397 Snake R nr State Hatchery   91.45

 

  2021-09-16 11:15:00  
13093670 Snake R blw Cedar Draw   94.86

 

  2021-10-16 06:45:00  
13094000 SNAKE RIVER NR BUHL ID   1.89 2,070 37,100 2021-10-16 06:45:00 BUHI1
13095175 BRIGGS SPRING AT HEAD NEAR BUHL ID   4.09 102   2021-10-16 06:30:00 BSPI1
13095500 BOX CANYON SPRINGS NR WENDELL ID   1.36 327   2021-10-16 06:15:00 BXCI1
13105000 SALMON FALLS CREEK NR SAN JACINTO NV 10 5.48 38.2 4,040 2021-10-16 05:45:00 SFLN2
13106500 SALMON RIVER CANAL CO RES NR ROGERSON ID   5.40

 

2021-10-16 06:00:00 SFRI1
13108150 SALMON FALLS CREEK NR HAGERMAN ID   5.07 221 7,500 2021-10-16 06:00:00 HAGI1
13112000 CAMAS CREEK AT CAMAS ID 9.2 2.41 0.00 1,500 2021-10-16 06:30:00 CCCI1
13115000 MUD LAKE NR TERRETON ID   3.08

 

  2021-10-16 06:30:00 MUDI1
13116500 MEDICINE LODGE CREEK NR SMALL ID 7.7 4.65 21.4 481 2021-10-16 06:15:00 MEDI1
13118700 LITTLE LOST RIVER BL WET CREEK NR HOWE ID 3.4 1.03 21.4 509 2021-10-16 06:30:00 LLRI1
13118975 LITTLE LOST RIVER AB FLOOD DIVERSION NR HOWE ID   6.21 34.4 314 2021-10-16 06:15:00  
13119000 LITTLE LOST RIVER NR HOWE, ID 4.5 2.62 28.0 450 2021-10-16 06:15:00 LLHI1
13120000 NF BIG LOST RIVER AT WILD HORSE NR CHILLY ID 5.1 1.38 17.2 2,170 2021-10-16 06:15:00 BLRI1
13120500 BIG LOST RIVER AT HOWELL RANCH NR CHILLY ID 4 0.54 18.9 5,010 2021-10-16 06:00:00 HWRI1
13122000 THOUSAND SPRINGS CREEK NR CHILLY ID   6.61 7.49 97.3 2021-10-16 06:00:00  
13124265 WARM SPRINGS CREEK BELOW DIVERSION NR MACKAY ID   8.82 21.0 54.7 2021-10-16 06:30:00  
13126000 MACKAY RES NR MACKAY ID   20.82

 

  2021-10-16 06:15:00 MACI1
13127000 BIG LOST RIVER BL MACKAY RES NR MACKAY ID 4.3 1.50 69.0 2,990 2021-10-16 06:45:00 MAKI1
13128900 LOWER CEDAR CREEK AB DIVS NR MACKAY ID   9.84 7.02 310 2021-10-16 06:30:00  
13131000 ANTELOPE CREEK NR DARLINGTON, ID 6 4.23 8.25 833 2021-10-16 06:00:00 ACKI1
13132100 BIG LOST RIVER BELOW MOORE DIV NR MOORE ID   9.33 ZFl 144 2021-10-16 05:45:00  
13132373 BIG LOST RIVER AT ARCO AT SUNSET ROAD ID   4.78 ZFl 563 2021-10-16 06:45:00  
13132500 BIG LOST RIVER NR ARCO ID 6.5 2.02 ZFl 2,500 2021-10-16 06:15:00 ARCI1
13132513 INL DIVERSION AT HEAD NEAR ARCO ID   48.01 Ssn 928 2021-10-16 06:45:00 INEI1
13132520 BIG LOST RIVER BL INL DIV NEAR ARCO ID   41.40 Ssn 671 2021-10-16 06:45:00 BLOI1
13132535 BIG LOST R AT LINCOLN BLVD BRIDGE NR ATOMIC CITY 14.8 12.80 Ssn 510 2021-10-16 06:45:00 LINI1
13132565 BIG LOST RIVER AB BIG LOST RIVER SINKS NR HOWE ID   3.56 Ssn 579 2021-10-16 06:45:00 BLSI1
13135500 BIG WOOD RIVER NR KETCHUM ID 8 4.78 44.9 3,360 2021-10-16 06:00:00 BWKI1
13135520 NF BIG WOOD RIVER NR SAWTOOTH NRA HQ NR KETCHUM ID 7.3 4.83 15.2 1,270 2021-10-16 06:30:00 NFBI1
13136550 WARM SPRINGS CR AT GATES RD NR KETCHUM, ID   9.53 30.3 603 2021-10-16 06:00:00  
13137000 WARM SPRINGS CREEK NEAR KETCHUM ID 12.2 9.34 31.4 1,660 2021-10-16 06:30:00 WRMI1
13137300 TRAIL CREEK NR SUN VALLEY, ID   3.81 9.96 801 2021-10-16 06:30:00  
13137500 TRAIL CREEK AT KETCHUM ID 7 4.94 7.59 750 2021-10-16 06:15:00 TCKI1
13138000 EAST FORK BIG WOOD RIVER AT GIMLET ID 7.9 4.79 4.86 822 2021-10-16 06:15:00 EFGI1
13139510 BIG WOOD RIVER AT HAILEY ID TOTAL FLOW 5 1.30 125 7,880 2021-10-16 05:45:00 HALI1
13140335 BIG WOOD R AT S BROADFORD BRIDGE NR BELLEVUE, ID   6.05 54.4 3,070 2021-10-16 05:45:00 BWBI1
13140800 BIG WOOD RIVER AT STANTON CROSSING NR BELLEVUE ID 12 4.410 9.90 5,450 2021-10-16 06:45:00 SCBI1
13141500 CAMAS CREEK NR BLAINE ID   1.92 2.05 9,780 2021-10-16 06:45:00 CMCI1
13142500 BIG WOOD RIVER BL MAGIC DAM NR RICHFIELD ID 9 1.86 1.91 10,000 2021-10-16 06:15:00 BWMI1
13147900 LITTLE WOOD RIVER AB HIGH FIVE CREEK NR CAREY ID 5.4 1.49 26.2 2,560 2021-10-16 06:45:00 LWOI1
13148500 LITTLE WOOD RIVER NR CAREY ID 5.8 0.73 1.20 20,000 2021-10-16 06:45:00 WODI1
13150430 SILVER CREEK AT SPORTSMAN ACCESS NR PICABO ID 8.3 6.78 86.4 572 2021-10-16 05:45:00 PBOI1
13152500 MALAD RIVER NR GOODING ID   0.79 1.08 8,860 2021-10-16 06:15:00 MLDI1
13154500 SNAKE RIVER AT KING HILL ID   7.31 7,420 47,200 2021-10-16 06:45:00 SKHI1
13159800 CANYON CR AT OREGON TRAIL XING NR MOUNTAIN HOME ID   1.69 0.70 1,420 2021-10-16 06:15:00 CCXI1
13168500 BRUNEAU RIVER NR HOT SPRING ID 9.5 4.52 39.2 6,860 2021-10-16 06:00:00 HOTI1
13171500 CJ STRIKE RES NR GRAND VIEW ID   54.74

 

  2021-10-16 06:15:00 CJSI1
13172500 SNAKE RIVER NR MURPHY ID   22.64 8,490 47,300 2021-10-16 06:17:00 SWAI1
13176400 EF OWYHEE RIVER AT CRUTCHER CROSSING, ID   8.17 18.6 10,800 2021-10-16 06:00:00 ORCI1
13185000 BOISE RIVER NR TWIN SPRINGS ID   5.34 292 22,700 2021-10-16 06:30:00 BTSI1
13186000 SF BOISE RIVER NR FEATHERVILLE ID 7.2 1.41 177 10,900 2021-10-16 06:30:00 BRFI1
13190500 SF BOISE RIVER AT ANDERSON RANCH DAM ID   2.99 304 9,850 2021-10-16 06:15:00 ANDI1
13200000 MORES CREEK AB ROBIE CREEK NR ARROWROCK DAM ID 8.8 1.85 28.6 5,440 2021-10-16 06:30:00 MORI1
13201500 LUCKY PEAK LAKE NR BOISE ID   2945.16

 

  2021-10-16 06:15:00 LUCI1
13206000 BOISE RIVER AT GLENWOOD BRIDGE NR BOISE ID 10.1 3.54 209 13,000 2021-10-16 06:45:00 BIGI1
13206305 BOISE RIVER SOUTH CHANNEL AT EAGLE ID   2.71 171 4,140 2021-10-16 06:30:00 BSCI1
13206400 EAGLE DRAIN AT EAGLE, ID   10.79 9.27 77.3 2021-10-16 06:00:00  
13210810 FIFTEENMILE CREEK NR MIDLAND BLVD NR MIDDLETON, ID   0.58 24.5 450 2021-10-16 06:15:00  
13210824 N MIDDLETON DRAIN (MILL SLOUGH) AT MIDDLETON ID   5.50 29.6 97.5 2021-10-16 05:45:00  
13210831 SOUTH MIDDLETON DRAIN AT MIDDLETON ID   1.38 28.2 165 2021-10-16 06:15:00  
13210980 MASON CREEK AT CALDWELL ID   5.12 45.3 238 2021-10-16 06:30:00  
13210986 W HARTLEY GULCH NR CALDWELL ID   1.26 8.02 49.1 2021-10-16 06:00:00  
132109867 EAST HARTLEY ABV BACKWATER NR CALDWELL, ID   4.18 11.6 106 2021-10-16 06:30:00  
13211205 BOISE RIVER AT CALDWELL, ID   6.07 392 9,490 2021-10-16 06:15:00 CDWI1
13212549 CONWAY GULCH BELOW 1ST ST AT NOTUS, ID   5.95 18.7 96.2 2021-10-16 06:00:00  
13212890 DIXIE DRAIN NR WILDER ID   1.57 112 540 2021-10-16 06:15:00  
13213000 BOISE RIVER NR PARMA ID   8.14 476 9,400 2021-10-16 06:30:00 PARI1
13213072 SAND RUN GULCH NR PARMA ID   4.23 92.4 766 2021-10-16 06:15:00  
13213100 SNAKE RIVER AT NYSSA OR   6.19 9,040 57,900 2021-10-16 06:30:00 SNYI1
13235000 SOUTH FORK PAYETTE RIVER AT LOWMAN, ID 7.5 3.15 271 8,980 2021-10-16 06:30:00 PRLI1
13236500 DEADWOOD RIVER BL DEADWOOD RES NR LOWMAN ID   2.04 46.3 2,580 2021-10-16 06:45:00 DRBI1
13237920 MIDDLE FORK PAYETTE RIVER NR CROUCH ID 11.8 5.43 87.3 4,880 2021-10-16 06:15:00 MFPI1
13238500 PAYETTE LAKE AT MCCALL ID   1.56

 

2021-10-16 06:15:00  
13239000 NF PAYETTE RIVER AT MCCALL ID   2.39 106 4,980 2021-10-16 06:30:00 PAYI1
13240000 LAKE FORK PAYETTE RIVER AB JUMBO CR NR MCCALL ID   3.11 Ssn 18,000 2021-10-16 06:30:00 LFPI1
13246000 NF PAYETTE RIVER NR BANKS ID   3.85 219 8,830 2021-10-16 06:00:00 BNKI1
13247500 PAYETTE RIVER NR HORSESHOE BEND ID   2.62 817 27,000 2021-10-16 06:30:00 HRSI1
13249500 PAYETTE RIVER NR EMMETT ID 10.5 2.14 894 32,700 2021-10-16 05:45:00 EMMI1
13250000 PAYETTE RIVER NR LETHA ID   7.78 536 27,000 2021-10-16 06:30:00 PLEI1
13251000 PAYETTE RIVER NR PAYETTE ID 12 4.66 906 32,000 2021-10-16 06:30:00 PRPI1
13258500 WEISER RIVER NR CAMBRIDGE ID 12 2.43 46.3 22,800 2021-10-16 06:00:00 CAMI1
13265500 CRANE CREEK AT MOUTH NR WEISER ID   1.41 2.01 4,800 2021-10-16 06:00:00 CRWI1
13266000 WEISER RIVER NR WEISER ID 9.5 3.75 75.8 34,500 2021-10-16 06:00:00 WSRI1
13269000 SNAKE RIVER AT WEISER ID 12 3.67 10,800 120,000 2021-10-16 06:00:00 WEII1
13290450 SNAKE RIVER AT HELLS CANYON DAM ID-OR STATE LINE   63.34 8,500 103,000 2021-10-16 05:30:00 HCDI1
13295000 VALLEY CREEK AT STANLEY ID 3.1 0.73 78.3 2,210 2021-10-16 06:00:00 VCSI1
13296000 YANKEE FORK SALMON RIVER NR CLAYTON ID 11 5.96 50.3 4,900 2021-10-16 06:15:00 YFSI1
13296500 SALMON RIVER BL YANKEE FORK NR CLAYTON ID 9.5 2.08 396 10,500 2021-10-16 06:45:00 SRYI1
13297330 THOMPSON CREEK NR CLAYTON ID   3.11 1.35 442 2021-10-16 06:45:00 TOMI1
13297350 BRUNO CREEK NR CLAYTON ID   2.37 Eqp 42.0 2021-09-08 15:45:00  
13297355 SQUAW CREEK BL BRUNO CREEK NR CLAYTON ID 6.2 3.70 Bkw 900 2021-10-16 06:30:00 SQUI1
13302005 PAHSIMEROI RIVER AT ELLIS ID   1.66 211 710 2021-10-16 06:00:00 PAHI1
13302500 SALMON RIVER AT SALMON ID 7.5 2.04 973 17,700 2021-10-16 06:00:00 SMNI1
13304050 Big Timber Creek Abv Mouth at Leadore ID   7.51 2.00   2021-10-16 06:00:00  
13305000 LEMHI RIVER NR LEMHI ID 6.5 3.31 72.9 2,430 2021-10-16 06:00:00 LERI1
13305310 LEMHI RIVER BELOW L5 DIVERSION NEAR SALMON, ID   1.03 22.9 2,920 2021-10-16 06:30:00  
13306370 PANTHER CREEK AT COBALT, ID   4.43 31.9 1,470 2021-10-16 06:45:00  
13306385 NAPIAS CREEK BELOW ARNETT CREEK NEAR LEESBURG, ID   5.33 8.58 1,020 2021-10-16 06:00:00  
13307000 SALMON RIVER NR SHOUP ID   2.16 1,380 25,700 2021-10-16 06:30:00  
13309220 MF SALMON RIVER AT MF LODGE NR YELLOW PINE ID   1.42 428 20,900 2021-10-16 06:45:00 MIDI1
13310199 MF SALMON RIVER AT MOUTH NR SHOUP, ID   30.64 847 29,300 2021-10-16 06:45:00  
13310700 SF SALMON RIVER NR KRASSEL RANGER STATION ID   1.54 104 9,710 2021-10-16 06:45:00 KRSI1
13310800 EFSF SALMON R ABV MEADOW CRK NR STIBNITE, ID   14.75 4.10 163 2021-09-14 12:45:00  
13310850 MEADOW CREEK NR STIBNITE, ID   3.30 1.93 169 2021-09-14 10:30:00  
13311000 EF OF SF SALMON RIVER AT STIBNITE, ID   4.85 10.4 430 2021-10-16 06:00:00 SFSI1
13311250 EFSF SALMON R ABV SUGAR CRK NR STIBNITE, ID   10.29 10.4 527 2021-10-16 06:15:00  
13311450 SUGAR CREEK NR STIBNITE, ID   6.80 7.10 375 2021-10-16 06:15:00 SUGI1
13313000 JOHNSON CREEK AT YELLOW PINE ID   1.96 61.0 6,250 2021-10-16 06:00:00 JOHI1
13316500 LITTLE SALMON RIVER AT RIGGINS ID 10 2.29 136 12,600 2021-10-16 06:00:00 RIGI1
13317000 SALMON RIVER AT WHITE BIRD ID 32 12.11 3,350 130,000 2021-10-16 05:45:00 WHBI1
13317660 SNAKE RIVER AT McDUFF RAPIDS AT CHINA GARDEN ID   4.81 12,000 148,000 2021-10-16 05:45:00 SNMI1
13336500 SELWAY RIVER NR LOWELL ID 14 3.02 520 48,900 2021-10-16 05:00:00 SELI1
13337000 LOCHSA RIVER NR LOWELL ID   1.83 348 35,100 2021-10-16 05:00:00 LOCI1
13337099 CLEAR CK AT KOOSKIA NATIONAL FISH HATCHERY   12.14 9.34 5,160 2021-10-16 04:45:00  
13338500 SF CLEARWATER RIVER AT STITES ID 8 2.84 158 19,500 2021-10-16 05:15:00 STII1
13338950 LAWYER CREEK AT KAMIAH ID   62.66

 

129 2021-10-16 05:45:00  
13339500 LOLO CREEK NR GREER ID   7.81 29.8 7,750 2021-08-25 10:30:00  
13340000 CLEARWATER RIVER AT OROFINO ID 17 2.41 1,220 87,300 2021-10-16 05:15:00 ORFI1
13340600 NF CLEARWATER RIVER NR CANYON RANGER STATION ID   5.45 618 37,500 2021-10-16 05:45:00  
13341050 CLEARWATER RIVER NR PECK ID   3.57 2,940 127,000 2021-10-16 05:30:00 PEKI1
13341140 BIG CANYON CREEK NR PECK ID   3.23 5.10   2021-10-16 05:45:00  
13341570 POTLATCH RIVER BEL LITTLE POTLATCH CR NR SPALDING   3.50 9.00 19,100 2021-10-16 05:00:00 PRII1
13342450 LAPWAI CREEK NR LAPWAI, ID   2.42 13.7 5,010 2021-10-16 05:30:00 LAPI1
13342500 CLEARWATER RIVER AT SPALDING ID 18 2.96 2,960 177,000 2021-10-16 05:00:00 SPDI1
13345000 PALOUSE RIVER NR POTLATCH, ID 15 4.94 8.26 14,600 2021-10-16 05:45:00 PLOI1
13346800 PARADISE CR AT UNIVERSITY OF IDAHO AT MOSCOW ID 9.2 3.59 0.06 1,060 2021-10-16 05:45:00 PACI1